createdAt,value
2017-11-06T00:00:24.699Z,6.40
2017-11-06T00:02:52.222Z,6.60
2017-11-06T00:05:21.300Z,6.77
2017-11-06T00:07:48.831Z,7.47
2017-11-06T00:10:16.359Z,6.60
2017-11-06T00:12:43.886Z,6.40
2017-11-06T00:15:11.406Z,7.13
2017-11-06T00:17:38.933Z,6.33
2017-11-06T00:20:06.479Z,6.77
2017-11-06T00:22:35.147Z,6.10
2017-11-06T00:25:03.419Z,7.00
2017-11-06T00:27:31.041Z,6.80
2017-11-06T00:29:58.945Z,7.30
2017-11-06T00:32:26.866Z,5.90
2017-11-06T00:34:54.438Z,6.37
2017-11-06T00:37:21.946Z,6.50
2017-11-06T00:39:49.443Z,5.97
2017-11-06T00:42:17.213Z,5.97
2017-11-06T00:44:46.217Z,5.53
2017-11-06T00:47:13.719Z,6.20
2017-11-06T00:49:42.018Z,6.20
2017-11-06T00:52:09.929Z,5.67
2017-11-06T00:54:37.438Z,6.30
2017-11-06T00:57:05.735Z,6.75
2017-11-06T00:59:33.266Z,5.37
2017-11-06T01:02:00.767Z,6.97
2017-11-06T01:04:28.328Z,6.33
2017-11-06T01:06:55.826Z,6.40
2017-11-06T01:09:23.358Z,5.93
2017-11-06T01:11:50.931Z,6.83
2017-11-06T01:14:18.458Z,5.67
2017-11-06T01:16:46.269Z,6.50
2017-11-06T01:19:13.787Z,5.50
2017-11-06T01:21:41.327Z,5.57
2017-11-06T01:24:08.838Z,6.20
2017-11-06T01:26:38.302Z,5.60
2017-11-06T01:29:05.847Z,5.73
2017-11-06T01:31:33.746Z,5.50
2017-11-06T01:34:01.266Z,5.93
2017-11-06T01:36:29.546Z,6.17
2017-11-06T01:38:57.810Z,6.03
2017-11-06T01:41:25.368Z,5.73
2017-11-06T01:43:54.362Z,6.00
2017-11-06T01:46:21.919Z,5.80
2017-11-06T01:48:49.907Z,6.27
2017-11-06T01:51:17.446Z,6.33
2017-11-06T01:53:45.738Z,5.90
2017-11-06T01:56:14.475Z,5.90
2017-11-06T01:58:41.978Z,6.27
2017-11-06T02:01:10.271Z,5.50
2017-11-06T02:03:37.859Z,5.40
2017-11-06T02:06:05.408Z,5.70
2017-11-06T02:08:33.120Z,6.07
2017-11-06T02:11:00.691Z,5.77
2017-11-06T02:13:28.215Z,5.97
2017-11-06T02:16:01.899Z,5.40
2017-11-06T02:18:29.491Z,5.57
2017-11-06T02:20:58.342Z,5.70
2017-11-06T02:23:25.858Z,5.50
2017-11-06T02:25:53.422Z,6.10
2017-11-06T02:28:21.693Z,5.43
2017-11-06T02:30:49.222Z,5.50
2017-11-06T02:33:16.779Z,7.40
2017-11-06T02:35:45.070Z,5.80
2017-11-06T02:38:12.603Z,5.03
2017-11-06T02:40:41.651Z,5.90
2017-11-06T02:43:09.568Z,5.40
2017-11-06T02:45:37.831Z,4.90
2017-11-06T02:48:05.351Z,5.70
2017-11-06T02:50:33.251Z,5.20
2017-11-06T02:53:00.751Z,5.30
2017-11-06T02:55:28.543Z,6.50
2017-11-06T02:57:56.071Z,4.40
2017-11-06T03:00:23.591Z,5.80
2017-11-06T03:02:51.147Z,5.50
2017-11-06T03:05:20.159Z,5.63
2017-11-06T03:07:47.694Z,5.03
2017-11-06T03:10:16.619Z,5.23
2017-11-06T03:12:44.531Z,5.70
2017-11-06T03:15:12.054Z,4.60
2017-11-06T03:17:39.999Z,4.73
2017-11-06T03:20:07.525Z,5.80
2017-11-06T03:22:35.039Z,5.00
2017-11-06T03:25:02.982Z,4.90
2017-11-06T03:27:30.502Z,5.27
2017-11-06T03:29:58.027Z,4.33
2017-11-06T03:32:25.579Z,5.25
2017-11-06T03:34:53.533Z,4.57
2017-11-06T03:37:22.545Z,5.03
2017-11-06T03:39:50.502Z,5.00
2017-11-06T03:42:18.043Z,4.97
2017-11-06T03:44:46.314Z,5.20
2017-11-06T03:47:14.606Z,4.43
2017-11-06T03:49:43.616Z,4.77
2017-11-06T03:52:12.937Z,4.23
2017-11-06T03:54:40.511Z,4.60
2017-11-06T03:57:08.034Z,4.43
2017-11-06T03:59:36.298Z,4.60
2017-11-06T04:02:05.169Z,4.93
2017-11-06T04:04:32.686Z,5.10
2017-11-06T04:07:00.219Z,4.57
2017-11-06T04:09:27.759Z,4.70
2017-11-06T04:11:56.767Z,4.83
2017-11-06T04:14:24.658Z,4.60
2017-11-06T04:16:52.577Z,4.23
2017-11-06T04:19:21.590Z,4.77
2017-11-06T04:21:49.122Z,5.03
2017-11-06T04:24:16.666Z,4.10
2017-11-06T04:26:45.545Z,3.93
2017-11-06T04:29:13.854Z,4.30
2017-11-06T04:31:41.370Z,4.80
2017-11-06T04:34:09.633Z,3.97
2017-11-06T04:36:37.149Z,4.57
2017-11-06T04:39:04.714Z,4.13
2017-11-06T04:41:33.038Z,4.30
2017-11-06T04:44:00.555Z,4.60
2017-11-06T04:46:28.839Z,4.37
2017-11-06T04:48:57.130Z,4.37
2017-11-06T04:51:24.642Z,4.37
2017-11-06T04:53:52.582Z,4.50
2017-11-06T04:56:20.848Z,4.20
2017-11-06T04:58:48.394Z,4.70
2017-11-06T05:01:15.946Z,4.57
2017-11-06T05:03:43.447Z,4.57
2017-11-06T05:06:11.343Z,4.27
2017-11-06T05:08:38.859Z,4.20
2017-11-06T05:11:06.383Z,3.90
2017-11-06T05:13:34.307Z,4.40
2017-11-06T05:16:01.874Z,4.60
2017-11-06T05:18:30.524Z,4.23
2017-11-06T05:20:58.023Z,4.30
2017-11-06T05:23:25.570Z,3.87
2017-11-06T05:25:53.834Z,3.60
2017-11-06T05:28:21.360Z,4.00
2017-11-06T05:30:49.311Z,4.27
2017-11-06T05:33:17.579Z,4.07
2017-11-06T05:35:45.188Z,4.00
2017-11-06T05:38:13.114Z,3.80
2017-11-06T05:40:41.381Z,3.97
2017-11-06T05:43:08.904Z,4.30
2017-11-06T05:45:36.475Z,3.90
2017-11-06T05:48:03.998Z,4.40
2017-11-06T05:50:33.013Z,4.07
2017-11-06T05:53:00.555Z,3.80
2017-11-06T05:55:28.843Z,4.33
2017-11-06T05:57:56.350Z,4.10
2017-11-06T06:00:23.915Z,4.27
2017-11-06T06:02:52.203Z,4.45
2017-11-06T06:05:20.119Z,4.00
2017-11-06T06:07:47.694Z,3.83
2017-11-06T06:10:15.991Z,3.63
2017-11-06T06:12:43.500Z,4.10
2017-11-06T06:15:11.022Z,4.03
2017-11-06T06:17:39.295Z,3.60
2017-11-06T06:20:07.588Z,3.63
2017-11-06T06:22:35.506Z,3.70
2017-11-06T06:25:03.436Z,3.60
2017-11-06T06:27:30.986Z,3.73
2017-11-06T06:29:58.523Z,3.57
2017-11-06T06:32:26.028Z,3.63
2017-11-06T06:34:53.946Z,4.10
2017-11-06T06:37:22.275Z,3.30
2017-11-06T06:39:49.803Z,3.60
2017-11-06T06:42:18.082Z,4.20
2017-11-06T06:44:46.015Z,4.17
2017-11-06T06:47:14.291Z,3.35
2017-11-06T06:49:43.630Z,3.63
2017-11-06T06:52:12.290Z,3.60
2017-11-06T06:54:41.031Z,3.60
2017-11-06T06:57:09.301Z,3.43
2017-11-06T06:59:36.846Z,2.80
2017-11-06T07:02:04.362Z,3.30
2017-11-06T07:04:32.398Z,3.13
2017-11-06T07:06:59.956Z,4.15
2017-11-06T07:09:27.517Z,3.97
2017-11-06T07:11:56.368Z,4.63
2017-11-06T07:14:24.314Z,4.50
2017-11-06T07:16:52.983Z,6.18
2017-11-06T07:19:20.498Z,6.50
2017-11-06T07:21:49.390Z,6.93
2017-11-06T07:24:18.265Z,6.72
2017-11-06T07:26:46.966Z,6.20
2017-11-06T07:29:16.015Z,7.00
2017-11-06T07:31:43.522Z,6.50
2017-11-06T07:34:11.105Z,7.45
2017-11-06T07:36:38.660Z,7.85
2017-11-06T07:39:06.168Z,9.10
2017-11-06T07:41:34.439Z,10.20
2017-11-06T07:44:02.379Z,9.70
2017-11-06T07:46:29.939Z,10.63
2017-11-06T07:48:58.797Z,9.57
2017-11-06T07:51:29.797Z,10.10
2017-11-06T07:53:58.831Z,10.10
2017-11-06T07:56:26.343Z,9.75
2017-11-06T07:58:53.914Z,10.00
2017-11-06T08:01:21.443Z,11.10
2017-11-06T08:03:48.942Z,10.97
2017-11-06T08:06:16.490Z,10.97
2017-11-06T08:08:44.790Z,10.30
2017-11-06T08:11:13.074Z,9.90
2017-11-06T08:13:41.017Z,10.63
2017-11-06T08:16:08.524Z,11.07
2017-11-06T08:18:36.035Z,11.00
2017-11-06T08:21:03.599Z,10.73
2017-11-06T08:23:31.114Z,10.13
2017-11-06T08:26:00.002Z,11.27
2017-11-06T08:28:27.575Z,9.83
2017-11-06T08:30:55.941Z,10.13
2017-11-06T08:33:23.466Z,10.33
2017-11-06T08:35:51.788Z,10.17
2017-11-06T08:38:19.391Z,10.27
2017-11-06T08:40:47.671Z,10.32
2017-11-06T08:43:15.997Z,10.35
2017-11-06T08:45:43.511Z,10.00
2017-11-06T08:48:11.923Z,9.75
2017-11-06T08:50:39.487Z,9.93
2017-11-06T08:53:07.091Z,10.10
2017-11-06T08:55:34.670Z,8.57
2017-11-06T08:58:02.962Z,9.93
2017-11-06T09:00:32.018Z,8.60
2017-11-06T09:03:00.676Z,9.10
2017-11-06T09:05:28.237Z,9.20
2017-11-06T09:07:56.509Z,9.60
2017-11-06T09:10:25.534Z,9.52
2017-11-06T09:12:53.098Z,8.90
2017-11-06T09:15:20.627Z,9.13
2017-11-06T09:17:48.155Z,9.67
2017-11-06T09:20:16.558Z,8.87
2017-11-06T09:22:44.494Z,9.50
2017-11-06T09:25:12.819Z,9.30
2017-11-06T09:27:40.356Z,8.60
2017-11-06T09:30:07.874Z,8.10
2017-11-06T09:32:36.157Z,8.65
2017-11-06T09:35:04.102Z,9.00
2017-11-06T09:37:32.035Z,9.37
2017-11-06T09:39:59.560Z,8.90
2017-11-06T09:42:27.523Z,9.03
2017-11-06T09:44:55.800Z,9.50
2017-11-06T09:47:23.338Z,8.43
2017-11-06T09:49:51.267Z,8.20
2017-11-06T09:52:18.796Z,9.27
2017-11-06T09:54:47.098Z,8.40
2017-11-06T09:57:14.675Z,8.33
2017-11-06T09:59:43.350Z,8.70
2017-11-06T10:02:11.992Z,8.60
2017-11-06T10:04:39.962Z,8.57
2017-11-06T10:07:07.574Z,8.87
2017-11-06T10:09:36.226Z,7.50
2017-11-06T10:12:05.130Z,8.83
2017-11-06T10:14:34.192Z,8.23
2017-11-06T10:17:01.699Z,8.67
2017-11-06T10:19:29.232Z,9.15
2017-11-06T10:21:56.748Z,7.82
2017-11-06T10:24:24.271Z,9.00
2017-11-06T10:26:51.804Z,7.37
2017-11-06T10:29:20.448Z,8.53
2017-11-06T10:31:47.983Z,8.50
2017-11-06T10:34:15.560Z,7.20
2017-11-06T10:36:43.091Z,8.60
2017-11-06T10:39:10.636Z,7.50
2017-11-06T10:41:38.563Z,7.50
2017-11-06T10:44:06.479Z,7.90
2017-11-06T10:46:34.398Z,7.93
2017-11-06T10:49:03.327Z,7.55
2017-11-06T10:51:31.605Z,7.97
2017-11-06T10:54:00.277Z,7.50
2017-11-06T10:56:27.837Z,7.20
2017-11-06T10:58:56.146Z,7.97
2017-11-06T11:01:24.066Z,7.50
2017-11-06T11:03:51.643Z,7.70
2017-11-06T11:06:19.922Z,8.20
2017-11-06T11:08:47.838Z,6.80
2017-11-06T11:11:16.151Z,7.70
2017-11-06T11:13:43.659Z,7.37
2017-11-06T11:16:11.190Z,7.83
2017-11-06T11:18:38.746Z,7.87
2017-11-06T11:21:06.658Z,6.97
2017-11-06T11:23:34.187Z,6.93
2017-11-06T11:26:02.854Z,7.57
2017-11-06T11:28:30.386Z,7.82
2017-11-06T11:30:58.670Z,7.70
2017-11-06T11:33:26.592Z,7.50
2017-11-06T11:35:54.859Z,7.27
2017-11-06T11:38:23.154Z,6.87
2017-11-06T11:40:50.700Z,6.70
2017-11-06T11:43:18.218Z,7.77
2017-11-06T11:45:46.512Z,6.90
2017-11-06T11:48:14.809Z,7.40
2017-11-06T11:50:42.345Z,9.10
2017-11-06T11:53:10.251Z,6.93
2017-11-06T11:55:38.207Z,7.50
2017-11-06T11:58:06.126Z,6.40
2017-11-06T12:00:34.087Z,7.00
2017-11-06T12:03:02.412Z,7.10
2017-11-06T12:05:31.301Z,5.87
2017-11-06T12:07:59.209Z,6.57
2017-11-06T12:10:27.143Z,6.15
2017-11-06T12:12:55.040Z,8.20
2017-11-06T12:15:22.563Z,7.00
2017-11-06T12:17:50.895Z,6.17
2017-11-06T12:20:18.396Z,6.70
2017-11-06T12:22:47.410Z,6.97
2017-11-06T12:25:16.437Z,7.50
2017-11-06T12:27:44.325Z,6.17
2017-11-06T12:30:11.833Z,7.40
2017-11-06T12:32:40.166Z,6.18
2017-11-06T12:35:07.750Z,6.90
2017-11-06T12:37:35.672Z,6.70
2017-11-06T12:40:03.239Z,7.20
2017-11-06T12:42:30.810Z,6.33
2017-11-06T12:44:59.114Z,6.87
2017-11-06T12:47:27.390Z,6.43
2017-11-06T12:49:55.790Z,6.07
2017-11-06T12:52:23.328Z,6.37
2017-11-06T12:54:51.639Z,5.60
2017-11-06T12:57:19.185Z,6.53
2017-11-06T12:59:47.474Z,6.80
2017-11-06T13:02:15.763Z,6.33
2017-11-06T13:04:44.463Z,5.50
2017-11-06T13:07:11.973Z,6.07
2017-11-06T13:09:41.020Z,6.30
2017-11-06T13:12:09.346Z,5.70
2017-11-06T13:14:37.655Z,5.37
2017-11-06T13:17:05.978Z,5.70
2017-11-06T13:19:33.539Z,5.18
2017-11-06T13:22:01.067Z,5.87
2017-11-06T13:24:28.595Z,5.93
2017-11-06T13:26:56.230Z,4.87
2017-11-06T13:29:24.534Z,5.47
2017-11-06T13:31:52.066Z,5.40
2017-11-06T13:34:19.639Z,5.10
2017-11-06T13:36:47.918Z,5.28
2017-11-06T13:39:16.961Z,5.17
2017-11-06T13:41:44.655Z,5.07
2017-11-06T13:44:12.191Z,5.43
2017-11-06T13:46:40.478Z,4.53
2017-11-06T13:49:08.007Z,5.50
2017-11-06T13:51:36.299Z,5.00
2017-11-06T13:54:04.593Z,5.63
2017-11-06T13:56:32.178Z,5.23
2017-11-06T13:59:01.238Z,6.25
2017-11-06T14:01:28.759Z,7.33
2017-11-06T14:03:56.282Z,8.33
2017-11-06T14:06:24.954Z,8.20
2017-11-06T14:08:52.871Z,9.60
2017-11-06T14:11:20.437Z,9.23
2017-11-06T14:13:48.721Z,9.27
2017-11-06T14:16:16.508Z,9.93
2017-11-06T14:18:44.114Z,9.67
2017-11-06T14:21:12.414Z,10.90
2017-11-06T14:23:40.106Z,10.20
2017-11-06T14:26:08.493Z,11.23
2017-11-06T14:28:36.417Z,11.33
2017-11-06T14:31:03.955Z,11.00
2017-11-06T14:33:32.324Z,12.90
2017-11-06T14:35:59.895Z,11.73
2017-11-06T14:38:27.794Z,10.90
2017-11-06T14:40:55.754Z,11.63
2017-11-06T14:43:23.341Z,11.60
2017-11-06T14:45:50.877Z,11.30
2017-11-06T14:48:18.855Z,13.10
2017-11-06T14:50:47.162Z,12.20
2017-11-06T14:53:15.486Z,10.37
2017-11-06T14:55:43.443Z,11.40
2017-11-06T14:58:10.963Z,10.83
2017-11-06T15:00:39.695Z,11.63
2017-11-06T15:03:07.999Z,12.03
2017-11-06T15:05:35.532Z,11.43
2017-11-06T15:08:03.863Z,11.80
2017-11-06T15:10:31.407Z,10.53
2017-11-06T15:12:58.984Z,11.20
2017-11-06T15:15:26.578Z,11.23
2017-11-06T15:17:54.523Z,12.33
2017-11-06T15:20:22.577Z,10.67
2017-11-06T15:22:50.236Z,10.43
2017-11-06T15:25:18.556Z,11.37
2017-11-06T15:27:46.382Z,11.60
2017-11-06T15:30:15.321Z,11.40
2017-11-06T15:32:43.616Z,10.95
2017-11-06T15:35:11.891Z,10.87
2017-11-06T15:37:40.578Z,11.60
2017-11-06T15:40:09.711Z,11.30
2017-11-06T15:42:38.018Z,11.03
2017-11-06T15:45:06.989Z,10.73
2017-11-06T15:47:35.869Z,11.40
2017-11-06T15:50:03.416Z,11.27
2017-11-06T15:52:31.723Z,11.17
2017-11-06T15:54:59.988Z,10.30
2017-11-06T15:57:28.274Z,10.80
2017-11-06T15:59:55.838Z,10.30
2017-11-06T16:02:23.346Z,10.97
2017-11-06T16:04:52.038Z,10.00
2017-11-06T16:07:20.431Z,10.37
2017-11-06T16:09:47.942Z,10.40
2017-11-06T16:12:15.471Z,10.80
2017-11-06T16:14:43.003Z,9.40
2017-11-06T16:17:10.529Z,10.60
2017-11-06T16:19:38.809Z,10.10
2017-11-06T16:22:06.355Z,9.80
2017-11-06T16:24:33.924Z,10.40
2017-11-06T16:27:01.466Z,10.77
2017-11-06T16:29:29.008Z,9.88
2017-11-06T16:31:57.889Z,9.63
2017-11-06T16:34:25.440Z,9.97
2017-11-06T16:36:53.008Z,9.97
2017-11-06T16:39:20.938Z,9.60
2017-11-06T16:41:49.819Z,10.20
2017-11-06T16:44:17.388Z,11.43
2017-11-06T16:46:45.310Z,9.67
2017-11-06T16:49:12.843Z,9.97
2017-11-06T16:51:40.442Z,8.80
2017-11-06T16:54:07.951Z,9.20
2017-11-06T16:56:35.502Z,10.10
2017-11-06T16:59:04.546Z,9.10
2017-11-06T17:01:33.186Z,10.10
2017-11-06T17:04:01.464Z,10.98
2017-11-06T17:06:29.440Z,10.18
2017-11-06T17:08:57.734Z,9.23
2017-11-06T17:11:25.254Z,9.35
2017-11-06T17:13:53.627Z,9.63
2017-11-06T17:16:22.643Z,10.23
2017-11-06T17:18:50.930Z,9.10
2017-11-06T17:21:18.512Z,9.50
2017-11-06T17:23:47.159Z,9.50
2017-11-06T17:26:15.798Z,9.90
2017-11-06T17:28:43.354Z,21.67
2017-11-06T17:31:10.858Z,51.50
2017-11-06T17:33:39.135Z,94.47
2017-11-06T17:36:06.690Z,106.87
2017-11-06T17:38:34.242Z,143.70
2017-11-06T17:41:02.905Z,141.57
2017-11-06T17:43:30.481Z,144.25
2017-11-06T17:45:59.499Z,162.87
2017-11-06T17:48:27.809Z,224.27
2017-11-06T17:50:55.378Z,260.10
2017-11-06T17:53:24.082Z,276.00
2017-11-06T17:55:51.638Z,306.27
2017-11-06T17:58:19.179Z,335.90
2017-11-06T18:00:46.736Z,337.03
2017-11-06T18:03:14.274Z,312.93
2017-11-06T18:05:41.839Z,314.03
2017-11-06T18:08:10.171Z,296.63
2017-11-06T18:10:38.516Z,290.77
2017-11-06T18:13:06.072Z,277.73
2017-11-06T18:15:33.637Z,284.70
2017-11-06T18:18:01.202Z,270.07
2017-11-06T18:20:30.186Z,255.47
2017-11-06T18:22:57.703Z,251.07
2017-11-06T18:25:25.635Z,243.53
2017-11-06T18:27:53.190Z,236.87
2017-11-06T18:30:21.145Z,226.43
2017-11-06T18:32:49.729Z,222.57
2017-11-06T18:35:17.717Z,209.17
2017-11-06T18:37:45.271Z,212.13
2017-11-06T18:40:13.199Z,201.23
2017-11-06T18:42:42.722Z,200.20
2017-11-06T18:45:10.307Z,184.23
2017-11-06T18:47:37.835Z,187.25
2017-11-06T18:50:05.450Z,178.73
2017-11-06T18:52:33.007Z,174.20
2017-11-06T18:55:01.318Z,173.40
2017-11-06T18:57:28.972Z,166.43
2017-11-06T18:59:57.358Z,167.37
2017-11-06T19:02:26.503Z,161.73
2017-11-06T19:04:54.083Z,163.53
2017-11-06T19:07:21.646Z,160.55
2017-11-06T19:09:49.197Z,163.35
2017-11-06T19:12:16.784Z,153.93
2017-11-06T19:14:45.187Z,149.23
2017-11-06T19:17:13.151Z,146.27
2017-11-06T19:19:41.489Z,160.45
2017-11-06T19:22:09.047Z,147.47
2017-11-06T19:24:37.550Z,140.87
2017-11-06T19:27:06.743Z,141.07
2017-11-06T19:29:34.342Z,143.32
2017-11-06T19:32:01.902Z,136.67
2017-11-06T19:34:30.282Z,133.80
2017-11-06T19:36:58.224Z,125.40
2017-11-06T19:39:26.163Z,126.10
2017-11-06T19:41:54.543Z,120.97
2017-11-06T19:44:22.116Z,116.53
2017-11-06T19:46:50.099Z,118.33
2017-11-06T19:49:18.760Z,118.82
2017-11-06T19:51:46.459Z,113.93
2017-11-06T19:54:14.877Z,109.83
2017-11-06T19:56:42.432Z,104.37
2017-11-06T19:59:10.358Z,107.43
2017-11-06T20:01:38.686Z,111.83
2017-11-06T20:04:07.033Z,106.97
2017-11-06T20:06:35.010Z,104.45
2017-11-06T20:09:02.699Z,102.87
2017-11-06T20:11:31.072Z,98.77
2017-11-06T20:13:58.636Z,97.33
2017-11-06T20:16:26.976Z,94.27
2017-11-06T20:18:54.695Z,99.20
2017-11-06T20:21:23.023Z,93.80
2017-11-06T20:23:50.562Z,92.60
2017-11-06T20:26:18.947Z,92.60
2017-11-06T20:28:47.274Z,91.22
2017-11-06T20:31:16.173Z,87.80
2017-11-06T20:33:43.816Z,82.70
2017-11-06T20:36:11.372Z,83.07
2017-11-06T20:38:38.960Z,82.73
2017-11-06T20:41:07.462Z,78.80
2017-11-06T20:43:36.552Z,75.43
2017-11-06T20:46:04.515Z,76.97
2017-11-06T20:48:32.838Z,74.70
2017-11-06T20:51:01.727Z,69.57
2017-11-06T20:53:29.700Z,67.50
2017-11-06T20:55:57.247Z,64.10
2017-11-06T20:58:25.210Z,62.83
2017-11-06T21:00:52.819Z,59.73
2017-11-06T21:03:20.765Z,59.85
2017-11-06T21:05:48.307Z,57.40
2017-11-06T21:08:16.630Z,55.40
2017-11-06T21:10:44.930Z,54.90
2017-11-06T21:13:12.508Z,52.60
2017-11-06T21:15:40.859Z,53.33
2017-11-06T21:18:08.502Z,52.53
2017-11-06T21:20:36.026Z,50.93
2017-11-06T21:23:04.591Z,48.27
2017-11-06T21:25:32.538Z,46.85
2017-11-06T21:28:00.074Z,46.30
2017-11-06T21:30:34.066Z,44.30
2017-11-06T21:33:02.480Z,43.27
2017-11-06T21:35:31.386Z,41.80
2017-11-06T21:37:58.946Z,41.23
2017-11-06T21:40:26.483Z,38.97
2017-11-06T21:42:54.864Z,36.03
2017-11-06T21:45:22.547Z,38.33
2017-11-06T21:47:50.102Z,37.87
2017-11-06T21:50:18.059Z,36.93
2017-11-06T21:52:45.645Z,35.27
2017-11-06T21:55:13.186Z,34.30
2017-11-06T21:57:40.740Z,32.87
2017-11-06T22:00:08.344Z,30.90
2017-11-06T22:02:36.676Z,31.47
2017-11-06T22:05:04.210Z,32.97
2017-11-06T22:07:33.115Z,31.80
2017-11-06T22:10:00.653Z,28.23
2017-11-06T22:12:28.194Z,28.87
2017-11-06T22:14:56.482Z,28.53
2017-11-06T22:17:24.876Z,27.77
2017-11-06T22:19:52.821Z,27.03
2017-11-06T22:22:21.248Z,27.40
2017-11-06T22:24:48.792Z,27.33
2017-11-06T22:27:16.884Z,28.80
2017-11-06T22:29:44.862Z,26.53
2017-11-06T22:32:13.135Z,24.50
2017-11-06T22:34:40.660Z,24.33
2017-11-06T22:37:08.202Z,23.10
2017-11-06T22:39:36.136Z,22.30
2017-11-06T22:42:05.155Z,24.40
2017-11-06T22:44:34.088Z,22.97
2017-11-06T22:47:01.996Z,23.87
2017-11-06T22:49:29.507Z,22.30
2017-11-06T22:51:59.226Z,21.60
2017-11-06T22:54:27.875Z,20.70
2017-11-06T22:56:55.413Z,20.30
2017-11-06T22:59:22.946Z,20.53
2017-11-06T23:01:50.480Z,19.80
2017-11-06T23:04:18.001Z,18.63
2017-11-06T23:06:45.566Z,20.87
2017-11-06T23:09:13.072Z,18.30
2017-11-06T23:11:41.022Z,18.13
2017-11-06T23:14:08.618Z,18.03
2017-11-06T23:16:36.285Z,18.83
2017-11-06T23:19:03.790Z,18.43
2017-11-06T23:21:32.106Z,17.53
2017-11-06T23:24:00.991Z,17.20
2017-11-06T23:26:29.307Z,17.30
2017-11-06T23:28:56.858Z,17.43
2017-11-06T23:31:24.394Z,17.23
2017-11-06T23:33:52.321Z,16.17
2017-11-06T23:36:20.635Z,16.27
2017-11-06T23:38:48.550Z,15.50
2017-11-06T23:41:16.481Z,14.90
2017-11-06T23:43:44.807Z,15.40
2017-11-06T23:46:12.334Z,14.10
2017-11-06T23:48:39.868Z,15.60
2017-11-06T23:51:07.434Z,15.30
2017-11-06T23:53:34.971Z,13.83
2017-11-06T23:56:02.515Z,15.07
2017-11-06T23:58:30.921Z,14.50
